Latest Weather Observations for Parafield

IDS60801

Issued at 4:31 pm CDT Saturday 10 December 2022 (issued every 10 minutes, with the page automatically refreshed every 10 minutes)

About weather observations | Map of weather stations | Latest weather observations for SA | Other Formats
Station Details ID: 023013 Name: PARAFIELD AIRPORT Lat: -34.80 Lon: 138.63 Height: 9.5 m
Data from the previous 72 hours. | See also: Recent months at Parafield
Date/Time
CDT
Temp
°C
App
Temp
°C
Dew
Point
°C
Rel
Hum
%
Delta-T
°C
Wind Press
QNH
hPa
Press
MSL
hPa
Rain since
9am
mm
Dir  Spd
km/h
Gust
km/h
Spd
kts
Gust
kts
10/04:30pm 35.2 28.5 3.7 14 16.6 N 28 39 15 21 1004.6 1004.6 0.0
10/04:00pm 35.8 30.2 7.0 17 16.0 WNW 26 33 14 18 1005.0 1005.0 0.0
10/03:30pm 35.2 28.3 6.5 17 15.8 NW 32 41 17 22 1005.4 1005.4 0.0
10/03:03pm 34.1 27.6 8.0 20 14.6 NW 32 50 17 27 1005.8 1005.8 0.0
10/03:00pm 33.6 27.0 7.6 20 14.4 NW 32 43 17 23 1006.0 1006.0 0.0
10/02:30pm 34.3 27.8 4.9 16 15.7 NNW 28 44 15 24 1006.0 1006.0 0.0
10/02:00pm 33.6 29.6 8.3 21 14.2 NE 19 28 10 15 1006.5 1006.5 0.0
10/01:30pm 34.5 30.1 9.0 21 14.5 NE 22 33 12 18 1006.6 1006.6 0.0
10/01:00pm 34.0 29.9 7.9 20 14.5 N 19 30 10 16 1007.2 1007.2 0.0
10/12:30pm 34.9 31.6 7.9 19 15.1 NE 15 24 8 13 1007.7 1007.7 0.0
10/12:00pm 32.3 28.4 7.2 21 13.7 N 17 24 9 13 1008.3 1008.3 0.0
10/11:30am 31.0 27.0 8.1 24 12.6 NE 19 28 10 15 1008.8 1008.8 0.0
10/11:00am 29.9 25.8 7.8 25 12.0 NE 19 30 10 16 1009.3 1009.3 0.0
10/10:30am 28.5 23.6 7.1 26 11.5 NNE 22 30 12 16 1009.6 1009.6 0.0
10/10:00am 28.3 23.4 7.0 26 11.4 NNE 22 32 12 17 1009.8 1009.8 0.0
10/09:30am 27.6 21.9 6.9 27 11.0 NNE 26 35 14 19 1010.2 1010.2 0.0
10/09:00am 25.2 20.2 6.4 30 9.7 NE 22 26 12 14 1010.7 1010.7 0.0
10/08:30am 24.2 18.2 5.5 30 9.5 NE 26 33 14 18 1010.4 1010.4 0.0
10/08:00am 23.3 18.2 6.1 33 8.8 NE 22 30 12 16 1010.7 1010.7 0.0
10/07:30am 22.1 17.0 5.9 35 8.2 NE 22 30 12 16 1010.6 1010.6 0.0
10/07:00am 21.6 15.8 6.3 37 7.7 NE 26 32 14 17 1010.4 1010.4 0.0
10/06:30am 21.6 15.6 5.1 34 8.2 NE 26 33 14 18 1010.4 1010.4 0.0
10/06:00am 20.7 14.2 4.7 35 7.8 NE 28 35 15 19 1010.5 1010.5 0.0
10/05:30am 20.5 13.5 4.1 34 7.9 NE 30 41 16 22 1010.3 1010.3 0.0
10/05:00am 20.5 13.9 4.1 34 7.9 NE 28 39 15 21 1010.4 1010.4 0.0
10/04:30am 20.5 13.4 3.7 33 8.0 NE 30 41 16 22 1010.5 1010.5 0.0
10/04:00am 20.2 13.6 4.3 35 7.7 NE 28 35 15 19 1010.4 1010.4 0.0
10/03:30am 20.2 13.6 4.3 35 7.7 NE 28 41 15 22 1010.4 1010.4 0.0
10/03:00am 20.2 14.7 3.9 34 7.8 NE 22 33 12 18 1010.6 1010.6 0.0
10/02:30am 20.1 14.6 3.8 34 7.8 NE 22 30 12 16 1010.7 1010.7 0.0
10/02:00am 20.0 15.5 4.1 35 7.6 NE 17 32 9 17 1011.0 1011.0 0.0
10/01:30am 20.5 15.4 4.1 34 7.9 NNE 20 30 11 16 1011.2 1011.2 0.0
10/01:00am 20.7 15.3 4.3 34 7.9 ENE 22 30 12 16 1011.3 1011.3 0.0
10/12:30am 21.1 15.6 4.2 33 8.2 ENE 22 30 12 16 1011.5 1011.5 0.0
10/12:00am 21.1 15.3 4.2 33 8.2 ENE 24 33 13 18 1011.8 1011.8 0.0
 
Date/Time
CDT
Temp
°C
App
Temp
°C
Dew
Point
°C
Rel
Hum
%
Delta-T
°C
Wind Press
QNH
hPa
Press
MSL
hPa
Rain since
9am
mm
Dir  Spd
km/h
Gust
km/h
Spd
kts
Gust
kts
09/11:30pm 21.0 15.9 4.1 33 8.2 ENE 20 28 11 15 1012.1 1012.1 0.0
09/11:00pm 21.4 16.5 4.0 32 8.4 ENE 19 28 10 15 1012.2 1012.2 0.0
09/10:30pm 21.7 16.7 4.7 33 8.3 ENE 20 32 11 17 1012.2 1012.2 0.0
09/10:00pm 21.9 16.6 4.9 33 8.4 E 22 32 12 17 1012.2 1012.2 0.0
09/09:30pm 22.2 18.1 6.0 35 8.2 E 17 24 9 13 1012.1 1012.1 0.0
09/09:00pm 22.2 18.2 6.8 37 7.9 E 17 20 9 11 1011.9 1011.9 0.0
09/08:30pm 23.1 19.1 6.8 35 8.4 E 17 26 9 14 1011.9 1011.9 0.0
09/08:00pm 24.2 19.8 7.4 34 8.8 E 20 26 11 14 1011.7 1011.7 0.0
09/07:30pm 25.5 21.7 7.6 32 9.5 E 17 26 9 14 1011.5 1011.5 0.0
09/07:00pm 26.2 23.0 6.8 29 10.2 ENE 13 20 7 11 1011.4 1011.4 0.0
09/06:30pm 26.4 23.9 6.4 28 10.4 ESE 9 17 5 9 1011.4 1011.4 0.0
09/06:00pm 26.7 24.6 6.7 28 10.5 ESE 7 15 4 8 1011.3 1011.3 0.0
09/05:30pm 27.2 25.4 7.1 28 10.7 SE 6 19 3 10 1011.5 1011.5 0.0
09/05:00pm 26.7 23.8 6.7 28 10.5 ENE 11 19 6 10 1011.8 1011.8 0.0
09/04:30pm 26.6 24.0 6.1 27 10.7 ESE 9 20 5 11 1012.2 1012.2 0.0
09/04:00pm 26.1 23.0 5.7 27 10.5 ENE 11 19 6 10 1012.6 1012.6 0.0
09/03:30pm 26.2 22.4 5.7 27 10.6 E 15 22 8 12 1012.9 1012.9 0.0
09/03:00pm 26.2 23.8 6.8 29 10.2 E 9 19 5 10 1013.3 1013.3 0.0
09/02:30pm 25.4 22.1 6.6 30 9.8 E 13 22 7 12 1013.7 1013.7 0.0
09/02:00pm 24.8 21.2 5.1 28 9.9 NE 13 24 7 13 1014.2 1014.2 0.0
09/01:30pm 23.7 20.2 5.6 31 9.1 ESE 13 22 7 12 1014.6 1014.6 0.0
09/01:00pm 23.5 19.8 6.3 33 8.8 NE 15 20 8 11 1014.9 1014.9 0.0
09/12:30pm 22.9 18.2 5.3 32 8.8 NNE 19 26 10 14 1015.5 1015.5 0.0
09/12:00pm 21.6 16.9 5.1 34 8.1 NNE 19 28 10 15 1015.8 1015.8 0.0
09/11:30am 20.8 16.9 5.2 36 7.7 NNE 15 26 8 14 1016.0 1016.0 0.0
09/11:00am 20.1 14.9 5.4 38 7.2 NE 22 30 12 16 1016.1 1016.1 0.0
09/10:30am 19.2 13.9 4.9 39 6.9 NE 22 30 12 16 1016.3 1016.3 0.0
09/10:00am 18.2 12.5 5.1 42 6.3 ENE 24 33 13 18 1016.3 1016.3 0.0
09/09:30am 17.4 11.6 4.4 42 6.1 NE 24 33 13 18 1017.1 1017.1 0.0
09/09:00am 16.3 11.6 5.0 47 5.4 NE 19 26 10 14 1017.5 1017.5 0.0
09/08:30am 14.7 9.9 4.4 50 4.8 NE 19 24 10 13 1017.9 1017.9 0.0
09/08:00am 14.2 11.2 4.2 51 4.6 NE 9 17 5 9 1017.9 1017.9 0.0
09/07:30am 13.8 10.4 4.1 52 4.4 ENE 11 22 6 12 1017.3 1017.3 0.0
09/07:00am 13.6 7.0 4.2 53 4.3 E 28 39 15 21 1016.3 1016.3 0.0
09/06:30am 13.6 6.9 3.9 52 4.4 E 28 39 15 21 1015.7 1015.7 0.0
09/06:00am 13.7 8.2 4.0 52 4.4 E 22 35 12 19 1015.5 1015.5 0.0
09/05:30am 13.5 8.4 4.1 53 4.3 E 20 32 11 17 1015.2 1015.2 0.0
09/05:00am 13.6 6.9 3.9 52 4.4 E 28 39 15 21 1014.7 1014.7 0.0
09/04:30am 13.6 7.4 4.2 53 4.3 E 26 33 14 18 1014.1 1014.1 0.0
09/04:00am 13.3 6.4 4.5 55 4.0 ESE 30 41 16 22 1014.4 1014.4 0.0
09/03:30am 13.5 7.4 4.6 55 4.1 E 26 35 14 19 1015.1 1015.1 0.0
09/03:00am 13.8 8.1 4.9 55 4.1 ESE 24 37 13 20 1015.4 1015.4 0.0
09/02:30am 13.9 8.7 5.5 57 3.9 E 22 30 12 16 1015.7 1015.7 0.0
09/02:00am 13.8 8.3 5.9 59 3.7 ESE 24 33 13 18 1015.6 1015.6 0.0
09/01:30am 13.5 9.0 5.9 60 3.6 ESE 19 32 10 17 1016.2 1016.2 0.0
09/01:00am 12.9 11.2 6.0 63 3.3 ENE 4 7 2 4 1017.1 1017.1 0.0
09/12:30am 12.5 10.4 5.7 63 3.2 ENE 6 13 3 7 1017.3 1017.3 0.0
09/12:00am 12.5 9.8 5.7 63 3.2 SE 9 13 5 7 1017.5 1017.5 0.0
 
Date/Time
CDT
Temp
°C
App
Temp
°C
Dew
Point
°C
Rel
Hum
%
Delta-T
°C
Wind Press
QNH
hPa
Press
MSL
hPa
Rain since
9am
mm
Dir  Spd
km/h
Gust
km/h
Spd
kts
Gust
kts
08/11:30pm 13.0 9.2 5.7 61 3.4 SE 15 20 8 11 1017.4 1017.4 0.0
08/11:00pm 13.0 9.2 5.9 62 3.3 SE 15 20 8 11 1018.0 1018.0 0.0
08/10:30pm 12.9 9.5 5.8 62 3.3 SE 13 17 7 9 1018.5 1018.5 0.0
08/10:00pm 12.6 9.4 5.1 60 3.5 SE 11 15 6 8 1018.5 1018.5 0.0
08/09:30pm 13.8 9.1 5.2 56 4.0 SE 19 26 10 14 1018.5 1018.5 0.0
08/09:00pm 14.2 9.5 5.3 55 4.2 SE 19 26 10 14 1018.3 1018.3 0.0
08/08:30pm 14.9 10.1 5.7 54 4.4 SE 20 28 11 15 1017.8 1017.8 0.0
08/08:00pm 15.5 10.3 5.7 52 4.7 SE 22 30 12 16 1017.6 1017.6 0.0
08/07:30pm 16.6 11.5 6.1 50 5.1 SE 22 32 12 17 1016.9 1016.9 0.0
08/07:00pm 17.2 11.8 6.4 49 5.3 SE 24 32 13 17 1016.4 1016.4 0.0
08/06:30pm 18.7 14.0 6.2 44 6.2 SE 20 32 11 17 1015.7 1015.7 0.0
08/06:00pm 19.7 14.4 6.8 43 6.5 SE 24 32 13 17 1015.7 1015.7 0.0
08/05:30pm 20.6 15.9 7.6 43 6.7 SE 22 32 12 17 1015.2 1015.2 0.0
08/05:00pm 21.2 16.6 6.3 38 7.5 SE 20 30 11 16 1015.7 1015.7 0.0
08/04:30pm 21.2 16.1 5.9 37 7.6 SSE 22 28 12 15 1016.0 1016.0 0.0
08/04:00pm 21.3 16.9 7.5 41 7.1 SW 20 28 11 15 1016.4 1016.4 0.0
08/03:30pm 20.5 15.0 5.7 38 7.3 SW 24 33 13 18 1016.7 1016.7 0.0
08/03:00pm 20.3 13.3 5.9 39 7.1 SW 32 41 17 22 1017.2 1017.2 0.0
08/02:30pm 20.7 14.3 7.0 41 7.0 WSW 30 43 16 23 1017.8 1017.8 0.0
08/02:00pm 21.3 15.4 6.0 37 7.7 SW 26 39 14 21 1017.9 1017.9 0.0
08/01:30pm 20.9 16.6 5.3 36 7.7 SSE 17 35 9 19 1017.4 1017.4 0.0
08/01:00pm 19.6 15.2 4.5 37 7.3 S 17 28 9 15 1018.2 1018.2 0.0
08/12:30pm 19.6 15.5 6.0 41 6.7 SSE 17 30 9 16 1018.4 1018.4 0.0
08/12:00pm 18.8 15.6 4.9 40 6.7 SSE 11 30 6 16 1018.7 1018.7 0.0
08/11:30am 20.3 16.4 5.5 38 7.3 S 15 26 8 14 1018.7 1018.7 0.0
08/11:00am 19.3 15.2 4.6 38 7.1 SSE 15 22 8 12 1018.7 1018.7 0.0
08/10:30am 18.3 13.9 4.5 40 6.6 SSE 17 28 9 15 1019.1 1019.1 0.0
08/10:00am 17.8 12.4 4.4 41 6.4 SSE 22 32 12 17 1019.3 1019.3 0.0
08/09:30am 16.1 11.9 3.9 44 5.6 SSW 15 24 8 13 1019.3 1019.3 0.0
08/09:00am 16.3 11.3 3.7 43 5.8 S 19 30 10 16 1019.4 1019.4 0.0
08/08:30am 16.0 11.3 5.0 48 5.2 SSE 19 24 10 13 1019.4 1019.4 0.0
08/08:00am 14.9 10.6 5.1 52 4.6 S 17 20 9 11 1019.0 1019.0 0.0
08/07:30am 13.7 9.9 5.6 58 3.8 SSE 15 20 8 11 1018.7 1018.7 0.0
08/07:00am 11.0 10.4 7.5 79 1.7 CALM 0 0 0 0 1018.5 1018.5 0.0
08/06:30am 8.2 7.1 5.0 80 1.4 CALM 0 0 0 0 1018.3 1018.3 0.0
08/06:00am 8.3 5.8 4.9 79 1.5 NE 7 9 4 5 1017.8 1017.8 0.0
08/05:30am 6.8 5.2 4.3 84 1.1 WNW 2 6 1 3 1017.6 1017.6 0.0
08/05:00am 8.4 5.6 5.0 79 1.5 ENE 9 11 5 6 1017.2 1017.2 0.0
08/04:30am 7.4 4.9 4.0 79 1.5 NNE 6 9 3 5 1017.3 1017.3 0.0
08/04:00am 8.4 5.9 4.0 74 1.9 SSW 6 7 3 4 1017.2 1017.2 0.0
08/03:30am 9.5 7.1 4.1 69 2.4 SSW 6 7 3 4 1017.2 1017.2 0.0
08/03:00am 9.6 7.1 4.0 68 2.5 S 6 7 3 4 1017.1 1017.1 0.0
08/02:30am 9.3 6.6 3.7 68 2.4 S 7 11 4 6 1017.1 1017.1 0.0
08/02:00am 9.5 6.8 3.7 67 2.5 SSW 7 9 4 5 1017.3 1017.3 0.0
08/01:30am 10.2 7.1 3.7 64 2.8 S 9 11 5 6 1017.4 1017.4 0.0
08/01:00am 9.9 6.8 3.4 64 2.8 S 9 11 5 6 1017.5 1017.5 0.0
08/12:30am 11.0 7.9 3.8 61 3.2 S 9 15 5 8 1017.7 1017.7 0.0
08/12:00am 10.6 7.5 3.6 62 3.1 S 9 11 5 6 1017.7 1017.7 0.0
 
Date/Time
CDT
Temp
°C
App
Temp
°C
Dew
Point
°C
Rel
Hum
%
Delta-T
°C
Wind Press
QNH
hPa
Press
MSL
hPa
Rain since
9am
mm
Dir  Spd
km/h
Gust
km/h
Spd
kts
Gust
kts
07/11:30pm 11.0 7.1 3.3 59 3.4 S 13 17 7 9 1017.6 1017.6 0.0
07/11:00pm 12.0 7.0 3.5 56 3.8 S 19 28 10 15 1017.5 1017.5 0.0
07/10:30pm 13.1 7.3 4.3 55 4.0 S 24 33 13 18 1017.4 1017.4 0.0
07/10:00pm 13.3 8.2 4.2 54 4.1 S 20 28 11 15 1017.0 1017.0 0.0
07/09:30pm 13.1 7.9 3.7 53 4.2 S 20 30 11 16 1016.5 1016.5 0.0
07/09:00pm 13.8 7.1 3.6 50 4.6 S 28 39 15 21 1016.1 1016.1 0.0
07/08:30pm 14.6 7.6 4.3 50 4.7 S 30 41 16 22 1015.6 1015.6 0.0
07/08:00pm 15.5 8.3 6.0 53 4.6 S 33 41 18 22 1014.9 1014.9 0.0
07/07:30pm 16.7 10.0 5.6 48 5.3 SW 30 41 16 22 1014.2 1014.2 0.0
07/07:00pm 17.6 9.9 7.1 50 5.2 SW 37 50 20 27 1013.9 1013.9 0.0
07/06:30pm 18.2 11.1 8.2 52 5.1 SW 35 46 19 25 1013.2 1013.2 0.0
07/06:01pm 18.9 12.0 7.4 47 5.8 SW 33 52 18 28 1012.6 1012.6 0.0
07/06:00pm 19.1 12.3 7.5 47 5.9 SW 33 44 18 24 1012.6 1012.6 0.0
07/05:30pm 19.5 12.2 8.8 50 5.6 SW 37 52 20 28 1012.4 1012.4 0.0
07/05:00pm 19.2 12.3 8.8 51 5.4 SW 35 52 19 28 1012.5 1012.5 0.0
07/04:55pm 19.8 13.4 8.5 48 5.9 SW 32 52 17 28 1012.3 1012.3 0.0

Other formats

Comma delimited format used in spreadsheet applications
http://www.bom.gov.au/fwo/IDS60801/IDS60801.95677.axf

JavaScript Object Notation format (JSON) in row-major order
http://www.bom.gov.au/fwo/IDS60801/IDS60801.95677.json

Data quality

Most of these data are generated automatically and are frequently updated. Quality checks on data are not normally performed. It is possible for incorrect values to appear. Refer to information at About Latest Weather Observations and please check the disclaimer before using these data.